createdAt,value
2018-02-10T00:00:09.680Z,2.6
2018-02-10T00:01:10.339Z,2.6
2018-02-10T00:02:11.047Z,2.6
2018-02-10T00:03:11.706Z,2.6
2018-02-10T00:04:12.365Z,2.7
2018-02-10T00:05:13.025Z,2.6
2018-02-10T00:06:13.683Z,2.6
2018-02-10T00:07:14.341Z,2.7
2018-02-10T00:08:15.001Z,2.6
2018-02-10T00:09:15.661Z,2.7
2018-02-10T00:10:16.354Z,2.7
2018-02-10T00:11:17.011Z,2.7
2018-02-10T00:12:17.669Z,2.6
2018-02-10T00:13:18.328Z,2.6
2018-02-10T00:14:18.990Z,2.7
2018-02-10T00:15:19.643Z,2.6
2018-02-10T00:16:20.301Z,2.7
2018-02-10T00:17:20.958Z,2.6
2018-02-10T00:18:21.617Z,2.6
2018-02-10T00:19:22.275Z,2.6
2018-02-10T00:20:22.933Z,2.6
2018-02-10T00:21:23.598Z,2.6
2018-02-10T00:22:24.252Z,2.5
2018-02-10T00:23:24.909Z,2.7
2018-02-10T00:24:25.568Z,2.6
2018-02-10T00:25:26.229Z,2.6
2018-02-10T00:26:26.889Z,2.6
2018-02-10T00:27:27.549Z,2.5
2018-02-10T00:28:28.209Z,2.5
2018-02-10T00:29:28.866Z,2.6
2018-02-10T00:30:29.525Z,2.6
2018-02-10T00:31:30.182Z,2.7
2018-02-10T00:32:30.840Z,2.7
2018-02-10T00:33:31.497Z,2.6
2018-02-10T00:34:32.155Z,2.6
2018-02-10T00:35:32.814Z,2.6
2018-02-10T00:36:33.510Z,2.6
2018-02-10T00:37:34.169Z,2.6
2018-02-10T00:38:34.826Z,2.7
2018-02-10T00:39:35.485Z,2.7
2018-02-10T00:40:36.143Z,2.8
2018-02-10T00:41:36.801Z,2.7
2018-02-10T00:42:37.459Z,2.7
2018-02-10T00:43:38.119Z,2.8
2018-02-10T00:44:38.778Z,2.7
2018-02-10T00:45:39.440Z,2.7
2018-02-10T00:46:40.134Z,2.8
2018-02-10T00:47:40.843Z,2.7
2018-02-10T00:48:41.549Z,2.7
2018-02-10T00:49:42.158Z,2.7
2018-02-10T00:50:42.819Z,2.7
2018-02-10T00:51:43.514Z,2.7
2018-02-10T00:52:44.173Z,2.7
2018-02-10T00:53:44.830Z,2.6
2018-02-10T00:54:45.527Z,2.7
2018-02-10T00:55:46.145Z,2.8
2018-02-10T00:56:46.841Z,2.8
2018-02-10T00:57:47.499Z,2.7
2018-02-10T00:58:48.159Z,2.7
2018-02-10T00:59:48.817Z,2.8
2018-02-10T01:00:49.476Z,2.8
2018-02-10T01:01:50.134Z,2.8
2018-02-10T01:02:50.793Z,2.8
2018-02-10T01:03:51.451Z,2.8
2018-02-10T01:04:52.108Z,2.8
2018-02-10T01:05:52.766Z,2.8
2018-02-10T01:06:53.424Z,2.7
2018-02-10T01:07:54.085Z,2.8
2018-02-10T01:08:54.741Z,2.7
2018-02-10T01:09:55.399Z,2.8
2018-02-10T01:10:56.057Z,2.8
2018-02-10T01:11:56.716Z,2.8
2018-02-10T01:12:57.423Z,2.8
2018-02-10T01:13:58.084Z,2.8
2018-02-10T01:14:58.742Z,2.9
2018-02-10T01:15:59.401Z,2.8
2018-02-10T01:17:00.067Z,2.9
2018-02-10T01:18:00.721Z,2.9
2018-02-10T01:19:01.374Z,2.8
2018-02-10T01:20:02.033Z,2.8
2018-02-10T01:21:02.728Z,2.7
2018-02-10T01:22:03.387Z,2.8
2018-02-10T01:23:04.046Z,2.7
2018-02-10T01:24:04.704Z,2.8
2018-02-10T01:25:05.362Z,2.8
2018-02-10T01:26:06.021Z,2.8
2018-02-10T01:27:06.679Z,2.9
2018-02-10T01:28:07.337Z,2.9
2018-02-10T01:29:07.996Z,2.9
2018-02-10T01:30:08.656Z,2.9
2018-02-10T01:31:09.316Z,2.9
2018-02-10T01:32:09.974Z,2.9
2018-02-10T01:33:10.635Z,2.9
2018-02-10T01:34:11.293Z,2.9
2018-02-10T01:35:11.951Z,2.9
2018-02-10T01:36:12.608Z,2.9
2018-02-10T01:37:13.267Z,3.0
2018-02-10T01:38:13.926Z,2.9
2018-02-10T01:39:14.584Z,2.9
2018-02-10T01:40:15.243Z,3.0
2018-02-10T01:41:15.900Z,2.9
2018-02-10T01:42:16.560Z,2.9
2018-02-10T01:43:17.220Z,2.9
2018-02-10T01:44:17.912Z,3.0
2018-02-10T01:45:18.572Z,2.9
2018-02-10T01:46:19.230Z,3.0
2018-02-10T01:47:19.888Z,2.9
2018-02-10T01:48:20.546Z,3.0
2018-02-10T01:49:21.204Z,2.9
2018-02-10T01:50:21.862Z,2.9
2018-02-10T01:51:22.522Z,2.9
2018-02-10T01:52:23.183Z,2.9
2018-02-10T01:53:23.837Z,2.9
2018-02-10T01:54:24.498Z,2.9
2018-02-10T01:55:25.192Z,2.9
2018-02-10T01:56:25.850Z,2.9
2018-02-10T01:57:26.510Z,2.9
2018-02-10T01:58:27.256Z,2.9
2018-02-10T01:59:27.968Z,2.9
2018-02-10T02:00:28.576Z,2.9
2018-02-10T02:01:29.236Z,2.8
2018-02-10T02:02:29.895Z,2.9
2018-02-10T02:03:30.556Z,2.9
2018-02-10T02:04:31.214Z,2.9
2018-02-10T02:05:31.912Z,2.9
2018-02-10T02:06:32.570Z,2.9
2018-02-10T02:07:33.229Z,2.9
2018-02-10T02:08:33.887Z,2.9
2018-02-10T02:09:34.545Z,2.9
2018-02-10T02:10:35.203Z,2.9
2018-02-10T02:11:35.862Z,2.9
2018-02-10T02:12:36.521Z,2.9
2018-02-10T02:13:37.179Z,2.9
2018-02-10T02:14:37.840Z,2.9
2018-02-10T02:15:38.499Z,2.9
2018-02-10T02:16:39.158Z,2.9
2018-02-10T02:17:39.817Z,2.8
2018-02-10T02:18:40.476Z,2.8
2018-02-10T02:19:41.134Z,2.9
2018-02-10T02:20:41.792Z,2.9
2018-02-10T02:21:42.450Z,2.9
2018-02-10T02:22:43.109Z,2.9
2018-02-10T02:23:43.769Z,2.9
2018-02-10T02:24:44.464Z,2.9
2018-02-10T02:25:45.122Z,2.9
2018-02-10T02:26:45.783Z,2.9
2018-02-10T02:27:46.439Z,2.9
2018-02-10T02:28:47.097Z,2.9
2018-02-10T02:29:47.756Z,3.0
2018-02-10T02:30:48.414Z,3.0
2018-02-10T02:31:49.073Z,3.0
2018-02-10T02:32:49.732Z,2.9
2018-02-10T02:33:50.393Z,3.0
2018-02-10T02:34:51.050Z,2.9
2018-02-10T02:35:51.711Z,3.0
2018-02-10T02:36:52.372Z,3.0
2018-02-10T02:37:53.071Z,2.9
2018-02-10T02:38:53.731Z,2.9
2018-02-10T02:39:54.391Z,3.0
2018-02-10T02:40:55.050Z,2.9
2018-02-10T02:41:55.718Z,2.9
2018-02-10T02:42:56.367Z,3.0
2018-02-10T02:43:57.026Z,2.9
2018-02-10T02:44:57.685Z,3.0
2018-02-10T02:45:58.342Z,2.9
2018-02-10T02:46:59.000Z,2.9
2018-02-10T02:47:59.660Z,2.9
2018-02-10T02:49:00.319Z,2.9
2018-02-10T02:50:00.978Z,2.9
2018-02-10T02:51:01.682Z,2.7
2018-02-10T02:52:02.370Z,2.8
2018-02-10T02:53:03.030Z,2.7
2018-02-10T02:54:03.744Z,2.9
2018-02-10T02:55:04.344Z,2.9
2018-02-10T02:56:05.003Z,2.8
2018-02-10T02:57:05.663Z,2.9
2018-02-10T02:58:06.359Z,2.9
2018-02-10T02:59:07.016Z,2.9
2018-02-10T03:00:07.675Z,2.9
2018-02-10T03:01:08.333Z,2.9
2018-02-10T03:02:09.029Z,2.9
2018-02-10T03:03:09.687Z,2.9
2018-02-10T03:04:10.346Z,2.9
2018-02-10T03:05:11.004Z,2.9
2018-02-10T03:06:11.662Z,2.9
2018-02-10T03:07:12.319Z,2.8
2018-02-10T03:08:12.977Z,2.9
2018-02-10T03:09:13.635Z,2.9
2018-02-10T03:10:14.295Z,2.9
2018-02-10T03:11:14.989Z,2.9
2018-02-10T03:12:15.649Z,2.9
2018-02-10T03:13:16.307Z,3.0
2018-02-10T03:14:16.965Z,3.0
2018-02-10T03:15:17.624Z,2.9
2018-02-10T03:16:18.283Z,2.9
2018-02-10T03:17:18.942Z,2.9
2018-02-10T03:18:19.602Z,2.9
2018-02-10T03:19:20.262Z,2.8
2018-02-10T03:20:20.920Z,2.8
2018-02-10T03:21:21.579Z,2.8
2018-02-10T03:22:22.237Z,2.8
2018-02-10T03:23:22.898Z,2.8
2018-02-10T03:24:23.555Z,2.8
2018-02-10T03:25:24.213Z,2.8
2018-02-10T03:26:24.870Z,2.8
2018-02-10T03:27:25.528Z,2.7
2018-02-10T03:28:26.186Z,2.8
2018-02-10T03:29:26.906Z,2.8
2018-02-10T03:30:27.592Z,2.8
2018-02-10T03:31:28.249Z,2.8
2018-02-10T03:32:28.906Z,2.8
2018-02-10T03:33:29.565Z,2.8
2018-02-10T03:34:30.224Z,2.7
2018-02-10T03:35:30.884Z,2.8
2018-02-10T03:36:31.544Z,2.7
2018-02-10T03:37:32.206Z,2.7
2018-02-10T03:38:32.903Z,2.7
2018-02-10T03:39:33.562Z,2.7
2018-02-10T03:40:34.223Z,2.8
2018-02-10T03:41:34.881Z,2.8
2018-02-10T03:42:35.540Z,2.7
2018-02-10T03:43:36.197Z,2.8
2018-02-10T03:44:36.857Z,2.8
2018-02-10T03:45:37.514Z,2.8
2018-02-10T03:46:38.173Z,2.7
2018-02-10T03:47:38.832Z,2.9
2018-02-10T03:48:39.492Z,2.7
2018-02-10T03:49:40.151Z,2.7
2018-02-10T03:50:40.811Z,2.8
2018-02-10T03:51:41.470Z,2.7
2018-02-10T03:52:42.129Z,2.8
2018-02-10T03:53:42.788Z,2.8
2018-02-10T03:54:43.484Z,2.8
2018-02-10T03:55:44.143Z,2.8
2018-02-10T03:56:44.802Z,2.8
2018-02-10T03:57:45.462Z,2.7
2018-02-10T03:58:46.118Z,2.6
2018-02-10T03:59:46.776Z,2.6
2018-02-10T04:00:47.434Z,2.6
2018-02-10T04:01:48.092Z,2.7
2018-02-10T04:02:48.751Z,2.7
2018-02-10T04:03:49.409Z,2.7
2018-02-10T04:04:50.105Z,2.8
2018-02-10T04:05:50.763Z,2.8
2018-02-10T04:06:51.422Z,2.7
2018-02-10T04:07:52.080Z,2.7
2018-02-10T04:08:52.738Z,2.8
2018-02-10T04:09:53.398Z,2.8
2018-02-10T04:10:54.092Z,2.8
2018-02-10T04:11:54.751Z,2.8
2018-02-10T04:12:55.409Z,2.7
2018-02-10T04:13:56.068Z,2.8
2018-02-10T04:14:56.727Z,2.8
2018-02-10T04:15:57.390Z,2.8
2018-02-10T04:16:58.043Z,2.8
2018-02-10T04:17:58.739Z,2.8
2018-02-10T04:18:59.435Z,2.8
2018-02-10T04:20:00.092Z,2.8
2018-02-10T04:21:00.750Z,2.8
2018-02-10T04:22:01.408Z,2.9
2018-02-10T04:23:02.067Z,2.9
2018-02-10T04:24:02.725Z,2.8
2018-02-10T04:25:03.384Z,2.9
2018-02-10T04:26:04.044Z,2.8
2018-02-10T04:27:04.700Z,2.8
2018-02-10T04:28:05.360Z,2.8
2018-02-10T04:29:06.018Z,2.8
2018-02-10T04:30:06.681Z,2.8
2018-02-10T04:31:07.337Z,2.7
2018-02-10T04:32:07.998Z,2.6
2018-02-10T04:33:08.658Z,2.7
2018-02-10T04:34:09.316Z,2.6
2018-02-10T04:35:09.975Z,2.5
2018-02-10T04:36:10.634Z,2.6
2018-02-10T04:37:11.293Z,2.6
2018-02-10T04:38:11.950Z,2.6
2018-02-10T04:39:12.608Z,2.6
2018-02-10T04:40:13.266Z,2.6
2018-02-10T04:41:13.925Z,2.6
2018-02-10T04:42:14.582Z,2.6
2018-02-10T04:43:15.241Z,2.7
2018-02-10T04:44:15.899Z,2.6
2018-02-10T04:45:16.558Z,2.6
2018-02-10T04:46:17.216Z,2.7
2018-02-10T04:47:17.878Z,2.8
2018-02-10T04:48:18.536Z,2.8
2018-02-10T04:49:19.196Z,2.7
2018-02-10T04:50:19.854Z,2.8
2018-02-10T04:51:20.512Z,2.7
2018-02-10T04:52:21.170Z,2.8
2018-02-10T04:53:21.829Z,2.7
2018-02-10T04:54:22.487Z,2.7
2018-02-10T04:55:23.194Z,2.8
2018-02-10T04:56:23.853Z,2.9
2018-02-10T04:57:24.513Z,2.7
2018-02-10T04:58:25.174Z,2.7
2018-02-10T04:59:25.835Z,2.7
2018-02-10T05:00:26.501Z,2.6
2018-02-10T05:01:27.153Z,2.6
2018-02-10T05:02:27.812Z,2.6
2018-02-10T05:03:28.469Z,2.7
2018-02-10T05:04:29.128Z,2.7
2018-02-10T05:05:29.786Z,2.6
2018-02-10T05:06:30.445Z,2.6
2018-02-10T05:07:31.105Z,2.6
2018-02-10T05:08:31.763Z,2.6
2018-02-10T05:09:32.422Z,2.5
2018-02-10T05:10:33.083Z,2.6
2018-02-10T05:11:33.743Z,2.6
2018-02-10T05:12:34.400Z,2.5
2018-02-10T05:13:35.058Z,2.7
2018-02-10T05:14:35.716Z,2.7
2018-02-10T05:15:36.375Z,2.7
2018-02-10T05:16:37.034Z,2.6
2018-02-10T05:17:37.692Z,2.6
2018-02-10T05:18:38.351Z,2.6
2018-02-10T05:19:39.009Z,2.6
2018-02-10T05:20:39.669Z,2.7
2018-02-10T05:21:40.326Z,2.5
2018-02-10T05:22:40.988Z,2.6
2018-02-10T05:23:41.643Z,2.7
2018-02-10T05:24:42.305Z,2.5
2018-02-10T05:25:42.966Z,2.6
2018-02-10T05:26:43.625Z,2.7
2018-02-10T05:27:44.298Z,2.6
2018-02-10T05:28:44.943Z,2.7
2018-02-10T05:29:45.602Z,2.6
2018-02-10T05:30:46.259Z,2.7
2018-02-10T05:31:46.917Z,2.7
2018-02-10T05:32:47.575Z,2.7
2018-02-10T05:33:48.271Z,2.8
2018-02-10T05:34:48.929Z,2.7
2018-02-10T05:35:49.588Z,2.8
2018-02-10T05:36:50.245Z,2.8
2018-02-10T05:37:50.904Z,2.7
2018-02-10T05:38:51.562Z,2.8
2018-02-10T05:39:52.219Z,2.8
2018-02-10T05:40:52.877Z,2.8
2018-02-10T05:41:53.535Z,2.8
2018-02-10T05:42:54.194Z,2.8
2018-02-10T05:43:54.853Z,2.8
2018-02-10T05:44:55.512Z,2.8
2018-02-10T05:45:56.174Z,2.8
2018-02-10T05:46:56.829Z,2.8
2018-02-10T05:47:57.489Z,2.7
2018-02-10T05:48:58.148Z,2.8
2018-02-10T05:49:58.806Z,2.8
2018-02-10T05:50:59.465Z,2.8
2018-02-10T05:52:00.124Z,2.8
2018-02-10T05:53:00.789Z,2.8
2018-02-10T05:54:01.441Z,2.9
2018-02-10T05:55:02.099Z,2.8
2018-02-10T05:56:02.757Z,2.8
2018-02-10T05:57:03.415Z,2.8
2018-02-10T05:58:04.073Z,2.8
2018-02-10T05:59:04.731Z,2.8
2018-02-10T06:00:05.391Z,2.7
2018-02-10T06:01:06.047Z,2.8
2018-02-10T06:02:06.705Z,2.8
2018-02-10T06:03:07.365Z,2.8
2018-02-10T06:04:08.026Z,2.8
2018-02-10T06:05:08.685Z,2.9
2018-02-10T06:06:09.346Z,2.8
2018-02-10T06:07:10.006Z,2.9
2018-02-10T06:08:10.663Z,2.8
2018-02-10T06:09:11.321Z,2.8
2018-02-10T06:10:11.980Z,2.8
2018-02-10T06:11:12.637Z,2.8
2018-02-10T06:12:13.296Z,2.8
2018-02-10T06:13:13.955Z,2.9
2018-02-10T06:14:14.613Z,2.8
2018-02-10T06:15:15.276Z,2.9
2018-02-10T06:16:15.932Z,2.9
2018-02-10T06:17:16.590Z,2.9
2018-02-10T06:18:17.249Z,2.9
2018-02-10T06:19:17.908Z,2.9
2018-02-10T06:20:18.569Z,2.9
2018-02-10T06:21:19.226Z,2.9
2018-02-10T06:22:19.884Z,3.0
2018-02-10T06:23:20.541Z,2.9
2018-02-10T06:24:21.200Z,2.9
2018-02-10T06:25:21.859Z,2.9
2018-02-10T06:26:22.518Z,2.9
2018-02-10T06:27:23.177Z,2.9
2018-02-10T06:28:23.836Z,2.9
2018-02-10T06:29:24.494Z,2.9
2018-02-10T06:30:25.154Z,2.9
2018-02-10T06:31:25.814Z,2.9
2018-02-10T06:32:26.476Z,2.9
2018-02-10T06:33:27.139Z,2.9
2018-02-10T06:34:27.798Z,2.9
2018-02-10T06:35:28.458Z,2.9
2018-02-10T06:36:29.117Z,2.9
2018-02-10T06:37:29.779Z,2.9
2018-02-10T06:38:30.474Z,2.9
2018-02-10T06:39:31.134Z,3.0
2018-02-10T06:40:31.793Z,3.0
2018-02-10T06:41:32.454Z,2.9
2018-02-10T06:42:33.113Z,2.9
2018-02-10T06:43:33.774Z,2.9
2018-02-10T06:44:34.434Z,2.9
2018-02-10T06:45:35.093Z,2.9
2018-02-10T06:46:35.752Z,2.9
2018-02-10T06:47:36.410Z,2.9
2018-02-10T06:48:37.071Z,2.9
2018-02-10T06:49:37.729Z,2.9
2018-02-10T06:50:38.390Z,3.0
2018-02-10T06:51:39.053Z,2.9
2018-02-10T06:52:39.715Z,2.9
2018-02-10T06:53:40.376Z,2.9
2018-02-10T06:54:41.036Z,2.9
2018-02-10T06:55:41.699Z,3.0
2018-02-10T06:56:42.357Z,3.0
2018-02-10T06:57:43.019Z,2.9
2018-02-10T06:58:43.681Z,2.9
2018-02-10T06:59:44.343Z,3.0
2018-02-10T07:00:45.001Z,2.9
2018-02-10T07:01:45.662Z,3.0
2018-02-10T07:02:46.323Z,2.9
2018-02-10T07:03:46.985Z,3.0
2018-02-10T07:04:47.648Z,2.9
2018-02-10T07:05:48.310Z,2.9
2018-02-10T07:06:48.970Z,2.9
2018-02-10T07:07:49.632Z,2.9
2018-02-10T07:08:50.331Z,2.8
2018-02-10T07:09:50.994Z,2.8
2018-02-10T07:10:51.656Z,2.7
2018-02-10T07:11:52.318Z,2.8
2018-02-10T07:12:53.017Z,2.7
2018-02-10T07:13:53.679Z,2.8
2018-02-10T07:14:54.341Z,2.8
2018-02-10T07:15:55.005Z,2.7
2018-02-10T07:16:55.667Z,2.7
2018-02-10T07:17:56.329Z,2.8
2018-02-10T07:18:56.996Z,2.7
2018-02-10T07:19:57.654Z,2.8
2018-02-10T07:20:58.315Z,2.7
2018-02-10T07:21:58.979Z,2.8
2018-02-10T07:22:59.679Z,2.8
2018-02-10T07:24:00.340Z,2.8
2018-02-10T07:25:01.013Z,2.9
2018-02-10T07:26:01.677Z,2.9
2018-02-10T07:27:02.338Z,2.9
2018-02-10T07:28:03.002Z,2.9
2018-02-10T07:29:03.664Z,2.9
2018-02-10T07:30:04.325Z,3.0
2018-02-10T07:31:04.986Z,2.9
2018-02-10T07:32:05.699Z,2.9
2018-02-10T07:33:06.360Z,2.9
2018-02-10T07:34:07.023Z,3.0
2018-02-10T07:35:07.684Z,3.0
2018-02-10T07:36:08.347Z,3.0
2018-02-10T07:37:09.008Z,3.0
2018-02-10T07:38:09.669Z,3.1
2018-02-10T07:39:10.332Z,3.1
2018-02-10T07:40:10.995Z,3.0
2018-02-10T07:41:11.659Z,3.0
2018-02-10T07:42:12.322Z,3.0
2018-02-10T07:43:12.985Z,3.1
2018-02-10T07:44:13.648Z,3.1
2018-02-10T07:45:14.312Z,3.0
2018-02-10T07:46:14.983Z,3.1
2018-02-10T07:47:15.637Z,3.3
2018-02-10T07:48:16.302Z,3.2
2018-02-10T07:49:16.968Z,3.3
2018-02-10T07:50:17.628Z,3.3
2018-02-10T07:51:18.292Z,3.3
2018-02-10T07:52:18.954Z,3.3
2018-02-10T07:53:19.616Z,3.3
2018-02-10T07:54:20.280Z,3.4
2018-02-10T07:55:20.944Z,3.4
2018-02-10T07:56:21.608Z,3.5
2018-02-10T07:57:22.271Z,3.4
2018-02-10T07:58:22.934Z,3.4
2018-02-10T07:59:23.599Z,3.4
2018-02-10T08:00:24.261Z,3.5
2018-02-10T08:01:24.924Z,3.4
2018-02-10T08:02:25.588Z,3.5
2018-02-10T08:03:26.254Z,3.5
2018-02-10T08:04:26.918Z,3.5
2018-02-10T08:05:27.582Z,3.6
2018-02-10T08:06:28.247Z,3.6
2018-02-10T08:07:28.949Z,3.7
2018-02-10T08:08:29.612Z,3.7
2018-02-10T08:09:30.274Z,3.7
2018-02-10T08:10:30.940Z,3.7
2018-02-10T08:11:31.605Z,3.7
2018-02-10T08:12:32.268Z,3.6
2018-02-10T08:13:32.932Z,3.7
2018-02-10T08:14:33.597Z,3.8
2018-02-10T08:15:34.260Z,3.7
2018-02-10T08:16:34.925Z,3.6
2018-02-10T08:17:35.588Z,3.7
2018-02-10T08:18:36.252Z,3.7
2018-02-10T08:19:36.916Z,3.8
2018-02-10T08:20:37.580Z,3.8
2018-02-10T08:21:38.244Z,3.8
2018-02-10T08:22:38.945Z,3.8
2018-02-10T08:23:39.608Z,3.9
2018-02-10T08:24:40.273Z,3.9
2018-02-10T08:25:40.940Z,3.9
2018-02-10T08:26:41.641Z,3.9
2018-02-10T08:27:42.306Z,3.9
2018-02-10T08:28:42.970Z,3.9
2018-02-10T08:29:43.636Z,4.1
2018-02-10T08:30:44.298Z,4.3
2018-02-10T08:31:44.962Z,4.3
2018-02-10T08:32:45.626Z,4.2
2018-02-10T08:33:46.330Z,4.2
2018-02-10T08:34:46.995Z,4.4
2018-02-10T08:35:47.658Z,4.4
2018-02-10T08:36:48.324Z,4.5
2018-02-10T08:37:48.989Z,4.6
2018-02-10T08:38:49.654Z,4.6
2018-02-10T08:39:50.320Z,4.7
2018-02-10T08:40:50.985Z,4.7
2018-02-10T08:41:51.652Z,4.8
2018-02-10T08:42:52.316Z,4.7
2018-02-10T08:43:53.021Z,4.6
2018-02-10T08:44:53.686Z,4.7
2018-02-10T08:45:54.351Z,4.6
2018-02-10T08:46:55.016Z,4.7
2018-02-10T08:47:55.684Z,4.7
2018-02-10T08:48:56.347Z,4.6
2018-02-10T08:49:57.011Z,4.6
2018-02-10T08:50:57.675Z,4.5
2018-02-10T08:51:58.341Z,4.4
2018-02-10T08:52:59.055Z,4.4
2018-02-10T08:53:59.721Z,4.3
2018-02-10T08:55:00.386Z,4.3
2018-02-10T08:56:01.049Z,4.2
2018-02-10T08:57:01.713Z,4.2
2018-02-10T08:58:02.379Z,4.1
2018-02-10T08:59:03.043Z,4.0
2018-02-10T09:00:03.706Z,4.1
2018-02-10T09:01:04.419Z,4.0
2018-02-10T09:02:05.035Z,4.0
2018-02-10T09:03:05.699Z,3.9
2018-02-10T09:04:06.362Z,4.0
2018-02-10T09:05:07.029Z,4.0
2018-02-10T09:06:07.692Z,4.0
2018-02-10T09:07:08.356Z,3.9
2018-02-10T09:08:09.020Z,3.9
2018-02-10T09:09:09.686Z,3.9
2018-02-10T09:10:10.352Z,3.9
2018-02-10T09:11:11.016Z,3.8
2018-02-10T09:12:11.704Z,3.8
2018-02-10T09:13:12.345Z,3.8
2018-02-10T09:14:13.008Z,3.8
2018-02-10T09:15:13.672Z,3.7
2018-02-10T09:16:14.339Z,3.8
2018-02-10T09:17:15.044Z,3.9
2018-02-10T09:18:15.705Z,3.9
2018-02-10T09:19:16.370Z,3.9
2018-02-10T09:20:17.034Z,3.9
2018-02-10T09:21:17.697Z,3.9
2018-02-10T09:22:18.360Z,4.0
2018-02-10T09:23:19.076Z,4.1
2018-02-10T09:24:19.739Z,4.0
2018-02-10T09:25:20.403Z,4.0
2018-02-10T09:26:21.067Z,3.9
2018-02-10T09:27:21.730Z,3.9
2018-02-10T09:28:22.393Z,4.0
2018-02-10T09:29:23.057Z,4.0
2018-02-10T09:30:23.722Z,4.0
2018-02-10T09:31:24.386Z,4.2
2018-02-10T09:32:25.086Z,4.3
2018-02-10T09:33:25.750Z,4.2
2018-02-10T09:34:26.414Z,4.3
2018-02-10T09:35:27.078Z,4.2
2018-02-10T09:36:27.742Z,4.3
2018-02-10T09:37:28.406Z,4.2
2018-02-10T09:38:29.071Z,4.2
2018-02-10T09:39:29.735Z,4.3
2018-02-10T09:40:30.403Z,4.3
2018-02-10T09:41:31.101Z,4.3
2018-02-10T09:42:31.767Z,4.3
2018-02-10T09:43:32.469Z,4.3
2018-02-10T09:44:33.132Z,4.4
2018-02-10T09:45:33.836Z,4.4
2018-02-10T09:46:34.501Z,4.4
2018-02-10T09:47:35.169Z,4.4
2018-02-10T09:48:35.833Z,4.5
2018-02-10T09:49:36.512Z,4.5
2018-02-10T09:50:37.164Z,4.5
2018-02-10T09:51:37.830Z,4.5
2018-02-10T09:52:38.493Z,4.6
2018-02-10T09:53:39.160Z,4.5
2018-02-10T09:54:39.826Z,4.6
2018-02-10T09:55:40.491Z,4.6
2018-02-10T09:56:41.157Z,4.6
2018-02-10T09:57:41.821Z,4.6
2018-02-10T09:58:42.486Z,4.7
2018-02-10T09:59:43.152Z,4.7
2018-02-10T10:00:43.818Z,4.7
2018-02-10T10:01:44.522Z,4.8
2018-02-10T10:02:45.148Z,4.8
2018-02-10T10:03:45.813Z,4.9
2018-02-10T10:04:46.478Z,4.9
2018-02-10T10:05:47.145Z,4.8
2018-02-10T10:06:47.812Z,4.8
2018-02-10T10:07:48.477Z,4.7
2018-02-10T10:08:49.143Z,4.7
2018-02-10T10:09:49.808Z,4.8
2018-02-10T10:10:50.472Z,4.8
2018-02-10T10:11:51.140Z,4.8
2018-02-10T10:12:51.806Z,4.9
2018-02-10T10:13:52.510Z,4.8
2018-02-10T10:14:53.176Z,5.0
2018-02-10T10:15:53.842Z,5.0
2018-02-10T10:16:54.508Z,5.1
2018-02-10T10:17:55.174Z,5.2
2018-02-10T10:18:55.840Z,5.1
2018-02-10T10:19:56.506Z,5.1
2018-02-10T10:20:57.172Z,5.1
2018-02-10T10:21:57.838Z,5.1
2018-02-10T10:22:58.503Z,5.1
2018-02-10T10:23:59.170Z,5.1
2018-02-10T10:24:59.838Z,5.0
2018-02-10T10:26:00.503Z,4.9
2018-02-10T10:27:01.170Z,5.1
2018-02-10T10:28:01.836Z,5.0
2018-02-10T10:29:02.502Z,5.1
2018-02-10T10:30:03.168Z,5.1
2018-02-10T10:31:03.834Z,5.0
2018-02-10T10:32:04.501Z,5.1
2018-02-10T10:33:05.165Z,5.1
2018-02-10T10:34:05.832Z,5.1
2018-02-10T10:35:06.580Z,5.1
2018-02-10T10:36:07.198Z,5.2
2018-02-10T10:37:07.870Z,5.3
2018-02-10T10:38:08.573Z,5.2
2018-02-10T10:39:09.241Z,5.3
2018-02-10T10:40:09.907Z,5.3
2018-02-10T10:41:10.570Z,5.3
2018-02-10T10:42:11.236Z,5.3
2018-02-10T10:43:11.903Z,5.3
2018-02-10T10:44:12.570Z,5.5
2018-02-10T10:45:13.237Z,5.5
2018-02-10T10:46:13.903Z,5.4
2018-02-10T10:47:14.571Z,5.3
2018-02-10T10:48:15.236Z,5.3
2018-02-10T10:49:15.904Z,5.2
2018-02-10T10:50:16.572Z,5.4
2018-02-10T10:51:17.275Z,5.3
2018-02-10T10:52:17.942Z,5.4
2018-02-10T10:53:18.608Z,5.4
2018-02-10T10:54:19.273Z,5.4
2018-02-10T10:55:19.939Z,5.3
2018-02-10T10:56:20.607Z,5.5
2018-02-10T10:57:21.295Z,5.5
2018-02-10T10:58:21.937Z,5.5
2018-02-10T10:59:22.604Z,5.5
2018-02-10T11:00:23.269Z,5.5
2018-02-10T11:01:23.936Z,5.5
2018-02-10T11:02:24.608Z,5.5
2018-02-10T11:03:25.269Z,5.6
2018-02-10T11:04:25.935Z,5.6
2018-02-10T11:05:26.604Z,5.6
2018-02-10T11:06:27.270Z,5.6
2018-02-10T11:07:27.972Z,5.7
2018-02-10T11:08:28.638Z,5.8
2018-02-10T11:09:29.306Z,5.9
2018-02-10T11:10:29.976Z,6.0
2018-02-10T11:11:30.644Z,6.0
2018-02-10T11:12:31.308Z,6.2
2018-02-10T11:13:31.974Z,6.3
2018-02-10T11:14:32.643Z,6.3
2018-02-10T11:15:33.310Z,6.4
2018-02-10T11:16:34.022Z,6.5
2018-02-10T11:17:34.682Z,6.6
2018-02-10T11:18:35.352Z,6.8
2018-02-10T11:19:36.102Z,6.8
2018-02-10T11:20:36.770Z,7.0
2018-02-10T11:21:37.438Z,7.0
2018-02-10T11:22:38.105Z,7.0
2018-02-10T11:23:38.772Z,6.9
2018-02-10T11:24:39.440Z,7.1
2018-02-10T11:25:40.106Z,7.1
2018-02-10T11:26:40.775Z,7.2
2018-02-10T11:27:41.443Z,7.1
2018-02-10T11:28:42.115Z,7.1
2018-02-10T11:29:42.777Z,7.2
2018-02-10T11:30:43.444Z,7.2
2018-02-10T11:31:44.111Z,7.2
2018-02-10T11:32:44.785Z,7.2
2018-02-10T11:33:45.449Z,7.3
2018-02-10T11:34:46.115Z,7.2
2018-02-10T11:35:46.785Z,7.3
2018-02-10T11:36:47.488Z,7.2
2018-02-10T11:37:48.156Z,7.4
2018-02-10T11:38:48.823Z,7.3
2018-02-10T11:39:49.493Z,7.4
2018-02-10T11:40:50.203Z,7.5
2018-02-10T11:41:50.871Z,7.6
2018-02-10T11:42:51.540Z,7.5
2018-02-10T11:43:52.207Z,7.5
2018-02-10T11:44:52.874Z,7.5
2018-02-10T11:45:53.543Z,7.5
2018-02-10T11:46:54.241Z,7.6
2018-02-10T11:47:54.881Z,7.5
2018-02-10T11:48:55.550Z,7.7
2018-02-10T11:49:56.217Z,7.7
2018-02-10T11:50:56.887Z,7.8
2018-02-10T11:51:57.557Z,7.8
2018-02-10T11:52:58.224Z,7.9
2018-02-10T11:53:58.892Z,7.9
2018-02-10T11:54:59.561Z,7.9
2018-02-10T11:56:00.229Z,8.1
2018-02-10T11:57:00.898Z,8.1
2018-02-10T11:58:01.567Z,8.1
2018-02-10T11:59:02.236Z,8.0
2018-02-10T12:00:02.904Z,7.9
2018-02-10T12:01:03.575Z,7.9
2018-02-10T12:02:04.244Z,8.0
2018-02-10T12:03:04.914Z,7.9
2018-02-10T12:04:05.578Z,7.8
2018-02-10T12:05:06.243Z,7.7
2018-02-10T12:06:06.911Z,7.8
2018-02-10T12:07:07.579Z,7.7
2018-02-10T12:08:08.250Z,7.6
2018-02-10T12:09:08.917Z,7.6
2018-02-10T12:10:09.592Z,7.6
2018-02-10T12:11:10.257Z,7.6
2018-02-10T12:12:10.926Z,7.6
2018-02-10T12:13:11.594Z,7.5
2018-02-10T12:14:12.264Z,7.4
2018-02-10T12:15:12.932Z,7.3
2018-02-10T12:16:13.602Z,7.3
2018-02-10T12:17:14.273Z,7.3
2018-02-10T12:18:14.939Z,7.4
2018-02-10T12:19:15.608Z,7.3
2018-02-10T12:20:16.282Z,7.2
2018-02-10T12:21:16.949Z,7.2
2018-02-10T12:22:17.655Z,7.1
2018-02-10T12:23:18.323Z,7.3
2018-02-10T12:24:18.990Z,7.1
2018-02-10T12:25:19.722Z,7.2
2018-02-10T12:26:20.355Z,7.1
2018-02-10T12:27:21.026Z,7.0
2018-02-10T12:28:21.695Z,7.0
2018-02-10T12:29:22.398Z,7.0
2018-02-10T12:30:23.066Z,6.8
2018-02-10T12:31:23.735Z,6.8
2018-02-10T12:32:24.402Z,6.8
2018-02-10T12:33:25.069Z,6.8
2018-02-10T12:34:25.738Z,6.8
2018-02-10T12:35:26.404Z,6.8
2018-02-10T12:36:27.074Z,6.8
2018-02-10T12:37:27.780Z,6.7
2018-02-10T12:38:28.449Z,6.5
2018-02-10T12:39:29.116Z,6.6
2018-02-10T12:40:29.784Z,6.5
2018-02-10T12:41:30.452Z,6.4
2018-02-10T12:42:31.119Z,6.3
2018-02-10T12:43:31.788Z,6.3
2018-02-10T12:44:32.458Z,6.3
2018-02-10T12:45:33.124Z,6.3
2018-02-10T12:46:33.793Z,6.2
2018-02-10T12:47:34.461Z,6.2
2018-02-10T12:48:35.132Z,6.3
2018-02-10T12:49:35.797Z,6.3
2018-02-10T12:50:36.469Z,6.4
2018-02-10T12:51:37.132Z,6.4
2018-02-10T12:52:37.800Z,6.5
2018-02-10T12:53:38.467Z,6.5
2018-02-10T12:54:39.134Z,6.5
2018-02-10T12:55:39.803Z,6.5
2018-02-10T12:56:40.471Z,6.5
2018-02-10T12:57:41.176Z,6.5
2018-02-10T12:58:41.844Z,6.4
2018-02-10T12:59:42.512Z,6.4
2018-02-10T13:00:43.179Z,6.4
2018-02-10T13:01:43.847Z,6.4
2018-02-10T13:02:44.515Z,6.5
2018-02-10T13:03:45.182Z,6.5
2018-02-10T13:04:45.850Z,6.4
2018-02-10T13:05:46.517Z,6.4
2018-02-10T13:06:47.185Z,6.4
2018-02-10T13:07:47.852Z,6.4
2018-02-10T13:08:48.523Z,6.4
2018-02-10T13:09:49.191Z,6.5
2018-02-10T13:10:49.860Z,6.4
2018-02-10T13:11:50.563Z,6.5
2018-02-10T13:12:51.230Z,6.6
2018-02-10T13:13:51.899Z,6.5
2018-02-10T13:14:52.568Z,6.5
2018-02-10T13:15:53.234Z,6.5
2018-02-10T13:16:53.902Z,6.5
2018-02-10T13:17:54.570Z,6.6
2018-02-10T13:18:55.237Z,6.6
2018-02-10T13:19:55.906Z,6.6
2018-02-10T13:20:56.573Z,6.5
2018-02-10T13:21:57.240Z,6.5
2018-02-10T13:22:57.948Z,6.5
2018-02-10T13:23:58.617Z,6.4
2018-02-10T13:24:59.285Z,6.4
2018-02-10T13:25:59.988Z,6.5
2018-02-10T13:27:00.655Z,6.4
2018-02-10T13:28:01.325Z,6.4
2018-02-10T13:29:01.991Z,6.4
2018-02-10T13:30:02.658Z,6.2
2018-02-10T13:31:03.375Z,6.2
2018-02-10T13:32:04.078Z,6.2
2018-02-10T13:33:04.743Z,6.2
2018-02-10T13:34:05.411Z,6.2
2018-02-10T13:35:06.078Z,6.2
2018-02-10T13:36:06.744Z,6.2
2018-02-10T13:37:07.411Z,6.2
2018-02-10T13:38:08.077Z,6.3
2018-02-10T13:39:08.744Z,6.4
2018-02-10T13:40:09.410Z,6.3
2018-02-10T13:41:10.079Z,6.4
2018-02-10T13:42:10.745Z,6.4
2018-02-10T13:43:11.412Z,6.3
2018-02-10T13:44:12.077Z,6.3
2018-02-10T13:45:12.742Z,6.3
2018-02-10T13:46:13.410Z,6.3
2018-02-10T13:47:14.078Z,6.3
2018-02-10T13:48:14.743Z,6.3
2018-02-10T13:49:15.408Z,6.3
2018-02-10T13:50:16.077Z,6.2
2018-02-10T13:51:16.744Z,6.4
2018-02-10T13:52:17.408Z,6.4
2018-02-10T13:53:18.074Z,6.5
2018-02-10T13:54:18.741Z,6.5
2018-02-10T13:55:19.408Z,6.5